createdAt,value
2022-11-18T00:01:28.639Z,7.73
2022-11-18T00:03:56.051Z,7.78
2022-11-18T00:06:25.264Z,7.77
2022-11-18T00:08:53.148Z,7.73
2022-11-18T00:11:40.788Z,7.63
2022-11-18T00:14:22.981Z,7.32
2022-11-18T00:16:53.159Z,7.28
2022-11-18T00:19:21.078Z,7.33
2022-11-18T00:21:48.568Z,7.44
2022-11-18T00:24:16.979Z,7.29
2022-11-18T00:26:45.977Z,7.25
2022-11-18T00:29:14.405Z,7.20
2022-11-18T00:31:42.189Z,6.99
2022-11-18T00:34:12.477Z,6.99
2022-11-18T00:36:39.994Z,6.83
2022-11-18T00:39:07.407Z,6.79
2022-11-18T00:41:48.918Z,6.84
2022-11-18T00:44:17.766Z,6.94
2022-11-18T00:46:45.258Z,7.01
2022-11-18T00:49:13.031Z,7.07
2022-11-18T00:51:40.516Z,6.92
2022-11-18T00:54:07.970Z,7.11
2022-11-18T00:56:35.412Z,7.29
2022-11-18T00:59:02.842Z,7.43
2022-11-18T01:01:32.105Z,7.46
2022-11-18T01:03:59.657Z,7.55
2022-11-18T01:06:27.193Z,7.71
2022-11-18T01:08:54.644Z,7.78
2022-11-18T01:11:39.515Z,7.83
2022-11-18T01:14:07.040Z,7.91
2022-11-18T01:16:35.765Z,7.97
2022-11-18T01:19:03.250Z,8.03
2022-11-18T01:21:30.671Z,8.14
2022-11-18T01:23:58.108Z,8.15
2022-11-18T01:26:25.556Z,8.16
2022-11-18T01:28:56.228Z,8.24
2022-11-18T01:31:23.643Z,8.36
2022-11-18T01:33:52.654Z,8.43
2022-11-18T01:36:21.745Z,8.52
2022-11-18T01:38:49.622Z,8.57
2022-11-18T01:41:17.759Z,8.55
2022-11-18T01:43:50.063Z,8.60
2022-11-18T01:46:17.529Z,8.65
2022-11-18T01:48:45.967Z,8.69
2022-11-18T01:51:17.262Z,8.63
2022-11-18T01:53:47.574Z,8.67
2022-11-18T01:56:17.807Z,8.73
2022-11-18T01:58:47.931Z,8.77
2022-11-18T02:01:15.538Z,8.80
2022-11-18T02:03:44.302Z,8.83
2022-11-18T02:06:12.170Z,8.81
2022-11-18T02:08:41.544Z,8.85
2022-11-18T02:11:31.020Z,8.84
2022-11-18T02:13:58.778Z,8.84
2022-11-18T02:16:33.707Z,8.64
2022-11-18T02:19:02.887Z,8.70
2022-11-18T02:21:41.757Z,8.64
2022-11-18T02:24:27.565Z,8.58
2022-11-18T02:27:38.461Z,8.47
2022-11-18T02:30:08.910Z,8.47
2022-11-18T02:32:42.962Z,8.44
2022-11-18T02:35:14.078Z,8.43
2022-11-18T02:37:46.978Z,8.44
2022-11-18T02:40:18.621Z,8.39
2022-11-18T02:42:49.874Z,8.42
2022-11-18T02:45:20.027Z,8.47
2022-11-18T02:47:49.314Z,8.46
2022-11-18T02:50:18.980Z,8.49
2022-11-18T02:52:47.574Z,8.56
2022-11-18T02:55:15.846Z,8.50
2022-11-18T02:57:45.785Z,8.44
2022-11-18T03:00:14.321Z,8.54
2022-11-18T03:02:45.196Z,8.60
2022-11-18T03:05:18.638Z,8.63
2022-11-18T03:07:47.875Z,8.65
2022-11-18T03:10:15.516Z,8.70
2022-11-18T03:12:44.590Z,8.72
2022-11-18T03:15:18.016Z,8.67
2022-11-18T03:17:56.588Z,8.49
2022-11-18T03:20:27.659Z,8.48
2022-11-18T03:22:56.950Z,8.61
2022-11-18T03:25:30.412Z,8.74
2022-11-18T03:28:02.953Z,8.62
2022-11-18T03:30:32.347Z,8.59
2022-11-18T03:33:04.108Z,8.36
2022-11-18T03:35:34.030Z,8.41
2022-11-18T03:38:08.467Z,8.60
2022-11-18T03:40:38.644Z,8.59
2022-11-18T03:43:09.922Z,8.67
2022-11-18T03:45:40.215Z,8.73
2022-11-18T03:48:13.191Z,8.78
2022-11-18T03:50:44.187Z,8.83
2022-11-18T03:53:12.299Z,8.80
2022-11-18T03:55:42.660Z,8.73
2022-11-18T03:58:14.731Z,8.64
2022-11-18T04:00:44.267Z,8.59
2022-11-18T04:03:13.571Z,8.54
2022-11-18T04:05:42.511Z,8.40
2022-11-18T04:08:12.453Z,8.49
2022-11-18T04:10:42.559Z,8.33
2022-11-18T04:13:14.750Z,8.22
2022-11-18T04:15:43.251Z,8.15
2022-11-18T04:18:11.273Z,8.20
2022-11-18T04:20:40.233Z,8.30
2022-11-18T04:23:08.468Z,8.38
2022-11-18T04:25:37.421Z,8.39
2022-11-18T04:28:06.276Z,8.42
2022-11-18T04:30:34.976Z,8.37
2022-11-18T04:33:02.506Z,8.39
2022-11-18T04:35:30.134Z,8.37
2022-11-18T04:37:58.882Z,8.54
2022-11-18T04:40:26.335Z,8.37
2022-11-18T04:42:53.793Z,8.49
2022-11-18T04:45:21.317Z,8.55
2022-11-18T04:47:48.733Z,8.49
2022-11-18T04:50:16.393Z,8.48
2022-11-18T04:52:43.746Z,8.66
2022-11-18T04:55:12.473Z,8.68
2022-11-18T04:57:39.878Z,8.83
2022-11-18T05:00:08.644Z,8.63
2022-11-18T05:02:36.096Z,8.66
2022-11-18T05:05:03.523Z,8.36
2022-11-18T05:07:30.975Z,8.38
2022-11-18T05:09:58.427Z,8.44
2022-11-18T05:12:45.002Z,8.57
2022-11-18T05:15:12.595Z,8.63
2022-11-18T05:17:40.034Z,8.62
2022-11-18T05:20:08.407Z,8.61
2022-11-18T05:22:35.860Z,8.41
2022-11-18T05:25:03.459Z,8.51
2022-11-18T05:27:32.207Z,8.07
2022-11-18T05:29:59.676Z,8.41
2022-11-18T05:32:28.181Z,8.59
2022-11-18T05:34:55.615Z,8.69
2022-11-18T05:37:23.040Z,8.77
2022-11-18T05:39:50.456Z,8.81
2022-11-18T05:42:35.663Z,8.78
2022-11-18T05:45:05.000Z,8.24
2022-11-18T05:47:52.385Z,8.52
2022-11-18T05:50:21.397Z,8.34
2022-11-18T05:52:49.119Z,8.44
2022-11-18T05:55:17.248Z,8.52
2022-11-18T05:57:44.713Z,8.36
2022-11-18T06:00:15.429Z,8.40
2022-11-18T06:02:44.724Z,8.39
2022-11-18T06:05:12.704Z,8.15
2022-11-18T06:07:43.149Z,7.99
2022-11-18T06:10:12.942Z,8.10
2022-11-18T06:12:43.575Z,8.00
2022-11-18T06:15:16.541Z,7.97
2022-11-18T06:17:47.951Z,7.97
2022-11-18T06:20:17.227Z,7.64
2022-11-18T06:22:46.677Z,7.60
2022-11-18T06:25:14.295Z,7.86
2022-11-18T06:27:41.979Z,8.01
2022-11-18T06:30:10.950Z,7.94
2022-11-18T06:32:39.847Z,8.02
2022-11-18T06:35:08.727Z,7.92
2022-11-18T06:37:36.182Z,7.75
2022-11-18T06:40:03.779Z,7.88
2022-11-18T06:42:49.112Z,7.69
2022-11-18T06:45:16.637Z,7.87
2022-11-18T06:47:44.560Z,7.88
2022-11-18T06:50:11.999Z,7.89
2022-11-18T06:52:41.190Z,7.59
2022-11-18T06:55:09.445Z,7.58
2022-11-18T06:57:36.861Z,7.67
2022-11-18T07:00:05.458Z,7.70
2022-11-18T07:02:33.014Z,7.85
2022-11-18T07:05:01.762Z,7.90
2022-11-18T07:07:29.318Z,7.90
2022-11-18T07:09:56.758Z,7.80
2022-11-18T07:12:24.159Z,7.40
2022-11-18T07:14:51.557Z,7.72
2022-11-18T07:17:18.974Z,7.60
2022-11-18T07:19:46.387Z,7.78
2022-11-18T07:22:15.213Z,7.78
2022-11-18T07:24:43.249Z,7.75
2022-11-18T07:27:10.715Z,7.91
2022-11-18T07:29:38.113Z,7.77
2022-11-18T07:32:06.066Z,7.58
2022-11-18T07:34:33.552Z,7.71
2022-11-18T07:37:00.955Z,7.73
2022-11-18T07:39:29.728Z,7.60
2022-11-18T07:41:57.156Z,7.61
2022-11-18T07:44:24.617Z,7.43
2022-11-18T07:46:52.056Z,7.56
2022-11-18T07:49:19.880Z,7.34
2022-11-18T07:51:47.375Z,7.25
2022-11-18T07:54:17.536Z,6.97
2022-11-18T07:56:46.325Z,7.16
2022-11-18T07:59:13.757Z,7.40
2022-11-18T08:01:41.211Z,7.17
2022-11-18T08:04:10.481Z,7.50
2022-11-18T08:06:38.490Z,7.52
2022-11-18T08:09:07.024Z,7.50
2022-11-18T08:11:34.779Z,7.52
2022-11-18T08:14:03.524Z,7.62
2022-11-18T08:16:31.097Z,7.55
2022-11-18T08:18:59.540Z,7.69
2022-11-18T08:21:26.949Z,7.49
2022-11-18T08:23:56.604Z,7.63
2022-11-18T08:26:24.869Z,7.87
2022-11-18T08:28:52.718Z,7.85
2022-11-18T08:31:24.473Z,7.44
2022-11-18T08:33:55.418Z,7.31
2022-11-18T08:36:24.272Z,7.43
2022-11-18T08:38:51.702Z,7.70
2022-11-18T08:41:22.903Z,7.66
2022-11-18T08:43:50.390Z,7.52
2022-11-18T08:46:18.139Z,7.35
2022-11-18T08:48:46.907Z,7.44
2022-11-18T08:51:14.391Z,7.43
2022-11-18T08:53:41.845Z,7.43
2022-11-18T08:56:14.104Z,7.34
2022-11-18T08:58:42.067Z,7.66
2022-11-18T09:01:09.834Z,7.62
2022-11-18T09:03:38.063Z,7.73
2022-11-18T09:06:11.494Z,7.22
2022-11-18T09:08:39.464Z,7.40
2022-11-18T09:11:08.548Z,7.30
2022-11-18T09:16:27.710Z,7.29
2022-11-18T09:18:56.426Z,7.49
2022-11-18T09:21:25.984Z,7.52
2022-11-18T09:23:53.929Z,7.67
2022-11-18T09:26:23.651Z,7.79
2022-11-18T09:28:54.106Z,8.01
2022-11-18T09:31:21.736Z,7.69
2022-11-18T09:33:49.212Z,7.57
2022-11-18T09:36:18.137Z,7.41
2022-11-18T09:38:51.604Z,7.43
2022-11-18T09:41:42.808Z,7.28
2022-11-18T09:56:34.550Z,7.25
2022-11-18T09:59:02.164Z,7.38
2022-11-18T10:01:31.663Z,7.26
2022-11-18T10:03:59.220Z,7.28
2022-11-18T10:06:29.203Z,7.41
2022-11-18T10:09:14.372Z,7.58
2022-11-18T10:11:52.163Z,7.51
2022-11-18T10:14:28.651Z,7.39
2022-11-18T10:17:03.327Z,7.32
2022-11-18T10:19:34.168Z,7.13
2022-11-18T10:22:19.516Z,7.18
2022-11-18T10:25:05.027Z,6.93
2022-11-18T10:27:42.396Z,7.08
2022-11-18T10:30:14.153Z,7.04
2022-11-18T10:32:56.534Z,7.10
2022-11-18T10:35:26.916Z,7.15
2022-11-18T10:38:09.688Z,6.95
2022-11-18T10:40:38.838Z,7.09
2022-11-18T10:43:07.577Z,6.95
2022-11-18T10:45:35.059Z,6.91
2022-11-18T10:48:08.872Z,6.69
2022-11-18T10:50:38.221Z,6.74
2022-11-18T10:53:06.056Z,6.62
2022-11-18T10:55:34.118Z,6.72
2022-11-18T10:58:04.406Z,6.84
2022-11-18T11:00:44.413Z,6.70
2022-11-18T11:03:26.666Z,6.33
2022-11-18T11:06:26.885Z,6.50
2022-11-18T11:08:56.254Z,6.67
2022-11-18T11:11:26.388Z,6.58
2022-11-18T11:13:56.735Z,6.15
2022-11-18T11:16:27.646Z,6.41
2022-11-18T11:18:57.940Z,6.36
2022-11-18T11:21:27.767Z,6.13
2022-11-18T11:23:55.296Z,6.25
2022-11-18T11:29:26.000Z,6.16
2022-11-18T11:32:00.543Z,6.01
2022-11-18T11:34:33.232Z,6.07
2022-11-18T11:37:05.260Z,6.23
2022-11-18T11:39:44.260Z,6.27
2022-11-18T11:42:18.491Z,6.37
2022-11-18T11:44:56.783Z,5.83
2022-11-18T11:47:47.672Z,6.08
2022-11-18T11:50:20.681Z,6.21
2022-11-18T11:52:55.375Z,6.08
2022-11-18T11:55:26.168Z,6.14
2022-11-18T11:58:02.959Z,5.80
2022-11-18T12:00:32.941Z,6.07
2022-11-18T12:03:15.804Z,5.68
2022-11-18T12:05:44.287Z,5.83
2022-11-18T12:08:15.203Z,5.69
2022-11-18T12:10:46.159Z,5.63
2022-11-18T12:13:21.792Z,5.71
2022-11-18T12:16:16.240Z,5.74
2022-11-18T12:18:48.860Z,5.61
2022-11-18T12:21:54.959Z,5.59
2022-11-18T12:24:34.131Z,5.74
2022-11-18T12:27:02.927Z,5.93
2022-11-18T12:29:38.092Z,5.69
2022-11-18T12:32:24.688Z,5.73
2022-11-18T12:34:58.656Z,5.53
2022-11-18T12:37:47.052Z,5.56
2022-11-18T12:40:34.052Z,5.51
2022-11-18T12:43:19.348Z,5.67
2022-11-18T12:45:55.646Z,5.87
2022-11-18T12:48:34.799Z,5.64
2022-11-18T12:51:11.664Z,5.69
2022-11-18T12:53:40.540Z,5.51
2022-11-18T12:56:12.800Z,5.63
2022-11-18T12:58:45.682Z,5.21
2022-11-18T13:01:15.076Z,5.23
2022-11-18T13:03:42.879Z,5.19
2022-11-18T13:15:38.723Z,5.32
2022-11-18T13:45:14.551Z,5.16
2022-11-18T13:47:45.664Z,5.01
2022-11-18T13:50:20.761Z,4.99
2022-11-18T13:52:51.360Z,4.90
2022-11-18T13:55:21.400Z,4.77
2022-11-18T13:57:50.436Z,4.90
2022-11-18T14:00:24.359Z,4.81
2022-11-18T14:02:57.253Z,4.64
2022-11-18T14:05:24.975Z,4.51
2022-11-18T14:07:58.695Z,4.23
2022-11-18T14:10:39.231Z,4.19
2022-11-18T14:13:18.623Z,4.20
2022-11-18T14:15:47.396Z,4.05
2022-11-18T14:18:25.002Z,4.10
2022-11-18T14:20:53.936Z,4.06
2022-11-18T14:23:27.297Z,4.26
2022-11-18T14:25:55.270Z,3.96
2022-11-18T14:28:25.276Z,4.04
2022-11-18T14:31:07.199Z,3.82
2022-11-18T14:33:35.960Z,3.85
2022-11-18T14:36:11.236Z,3.82
2022-11-18T14:39:04.451Z,3.82
2022-11-18T14:41:47.608Z,3.92
2022-11-18T14:44:15.536Z,3.93
2022-11-18T14:46:46.168Z,4.00
2022-11-18T14:49:15.018Z,3.74
2022-11-18T14:51:42.709Z,3.73
2022-11-18T14:54:13.695Z,3.88
2022-11-18T14:56:41.580Z,3.82
2022-11-18T14:59:12.440Z,3.72
2022-11-18T15:01:40.268Z,3.72
2022-11-18T15:04:09.332Z,3.61
2022-11-18T15:06:37.325Z,3.62
2022-11-18T15:09:05.165Z,3.56
2022-11-18T15:11:32.595Z,3.45
2022-11-18T15:14:00.154Z,3.42
2022-11-18T15:16:29.328Z,3.36
2022-11-18T15:19:00.316Z,3.47
2022-11-18T15:21:29.438Z,3.54
2022-11-18T15:23:57.030Z,3.57
2022-11-18T15:26:26.061Z,3.49
2022-11-18T15:28:54.890Z,3.25
2022-11-18T15:31:23.087Z,3.39
2022-11-18T15:33:51.229Z,3.22
2022-11-18T15:36:20.189Z,3.17
2022-11-18T15:38:49.655Z,3.26
2022-11-18T15:41:18.525Z,3.38
2022-11-18T15:43:46.208Z,3.27
2022-11-18T15:46:13.895Z,3.31
2022-11-18T15:48:41.621Z,3.26
2022-11-18T15:51:12.072Z,3.41
2022-11-18T15:53:40.434Z,3.23
2022-11-18T15:56:34.075Z,3.32
2022-11-18T15:59:02.586Z,3.19
2022-11-18T16:01:31.624Z,3.02
2022-11-18T16:03:59.850Z,3.15
2022-11-18T16:06:27.716Z,3.15
2022-11-18T16:08:59.629Z,3.10
2022-11-18T16:11:46.205Z,3.19
2022-11-18T16:14:17.376Z,3.02
2022-11-18T16:16:46.631Z,3.03
2022-11-18T16:19:15.391Z,2.81
2022-11-18T16:21:44.034Z,2.88
2022-11-18T16:24:16.159Z,2.87
2022-11-18T16:26:44.147Z,2.76
2022-11-18T16:29:12.785Z,2.65
2022-11-18T16:31:40.678Z,2.65
2022-11-18T16:34:08.928Z,2.47
2022-11-18T16:36:37.026Z,2.60
2022-11-18T16:39:06.215Z,2.53
2022-11-18T16:41:33.682Z,2.49
2022-11-18T16:44:03.273Z,2.48
2022-11-18T16:46:31.371Z,2.45
2022-11-18T16:49:00.674Z,2.53
2022-11-18T16:51:29.865Z,2.28
2022-11-18T16:53:58.351Z,2.12
2022-11-18T16:56:27.853Z,2.03
2022-11-18T16:58:59.279Z,2.07
2022-11-18T17:01:29.565Z,1.90
2022-11-18T17:03:58.094Z,1.98
2022-11-18T17:06:27.254Z,2.06
2022-11-18T17:08:54.812Z,1.92
2022-11-18T17:11:22.371Z,1.95
2022-11-18T17:13:56.362Z,1.86
2022-11-18T17:16:25.439Z,1.94
2022-11-18T17:18:55.443Z,1.87
2022-11-18T17:21:23.268Z,1.86
2022-11-18T17:23:52.256Z,1.79
2022-11-18T17:26:21.392Z,1.74
2022-11-18T17:28:48.931Z,1.64
2022-11-18T17:31:17.914Z,1.57
2022-11-18T17:33:45.631Z,1.45
2022-11-18T17:36:14.464Z,1.43
2022-11-18T17:38:43.150Z,1.26
2022-11-18T17:41:34.639Z,1.52
2022-11-18T17:44:03.807Z,1.32
2022-11-18T17:46:36.532Z,1.35
2022-11-18T17:49:07.225Z,1.37
2022-11-18T17:51:34.772Z,1.48
2022-11-18T17:54:02.259Z,1.43
2022-11-18T17:56:31.004Z,1.22
2022-11-18T17:58:58.497Z,1.37
2022-11-18T18:01:26.040Z,1.45
2022-11-18T18:03:54.278Z,1.40
2022-11-18T18:06:21.840Z,1.41
2022-11-18T18:08:49.299Z,1.36
2022-11-18T18:11:18.293Z,1.18
2022-11-18T18:14:04.591Z,1.29
2022-11-18T18:16:33.608Z,1.35
2022-11-18T18:19:02.554Z,1.32
2022-11-18T18:21:29.993Z,1.48
2022-11-18T18:23:57.828Z,1.48
2022-11-18T18:26:30.931Z,1.26
2022-11-18T18:29:00.498Z,1.32
2022-11-18T18:31:28.551Z,1.23
2022-11-18T18:33:56.163Z,1.18
2022-11-18T18:36:25.022Z,1.36
2022-11-18T18:38:53.189Z,1.01
2022-11-18T18:41:22.636Z,1.13
2022-11-18T18:43:50.454Z,1.32
2022-11-18T18:46:29.286Z,1.10
2022-11-18T18:48:58.422Z,1.29
2022-11-18T18:51:26.362Z,1.22
2022-11-18T18:53:54.000Z,1.45
2022-11-18T18:56:21.424Z,1.26
2022-11-18T18:58:49.372Z,1.08
2022-11-18T19:01:19.639Z,1.00
2022-11-18T19:03:47.299Z,0.90
2022-11-18T19:09:09.907Z,1.17
2022-11-18T19:11:55.019Z,1.16
2022-11-18T19:14:23.563Z,1.05
2022-11-18T19:16:52.631Z,1.02
2022-11-18T19:19:42.655Z,1.23
2022-11-18T19:22:11.022Z,1.22
2022-11-18T19:24:54.414Z,1.35
2022-11-18T19:27:22.836Z,1.25
2022-11-18T19:29:50.427Z,1.45
2022-11-18T19:32:19.244Z,1.33
2022-11-18T19:34:46.643Z,1.29
2022-11-18T19:37:14.138Z,1.25
2022-11-18T19:39:41.549Z,1.26
2022-11-18T19:42:10.559Z,1.42
2022-11-18T19:44:38.067Z,1.44
2022-11-18T19:47:05.627Z,1.24
2022-11-18T19:49:35.795Z,1.24
2022-11-18T19:52:03.296Z,1.51
2022-11-18T19:54:30.784Z,1.58
2022-11-18T19:56:58.311Z,1.44
2022-11-18T19:59:25.768Z,1.43
2022-11-18T20:01:53.312Z,1.42
2022-11-18T20:04:20.751Z,1.58
2022-11-18T20:06:49.823Z,1.37
2022-11-18T20:09:18.429Z,1.26
2022-11-18T20:11:46.174Z,1.27
2022-11-18T20:14:15.240Z,1.30
2022-11-18T20:16:42.725Z,1.27
2022-11-18T20:19:13.288Z,1.23
2022-11-18T20:21:43.112Z,1.32
2022-11-18T20:24:15.676Z,1.12
2022-11-18T20:26:43.267Z,1.12
2022-11-18T20:29:10.871Z,1.26
2022-11-18T20:31:38.422Z,1.08
2022-11-18T20:34:06.216Z,1.13
2022-11-18T20:36:35.677Z,1.21
2022-11-18T20:39:05.031Z,1.16
2022-11-18T20:41:33.874Z,1.14
2022-11-18T20:44:01.595Z,1.18
2022-11-18T20:46:29.411Z,1.29
2022-11-18T20:48:57.193Z,1.00
2022-11-18T20:51:46.889Z,1.01
2022-11-18T20:54:14.684Z,1.07
2022-11-18T20:56:43.549Z,0.96
2022-11-18T20:59:11.112Z,1.09
2022-11-18T21:01:38.674Z,1.14
2022-11-18T21:04:06.155Z,1.16
2022-11-18T21:06:34.687Z,1.01
2022-11-18T21:09:03.320Z,1.04
2022-11-18T21:11:31.465Z,1.13
2022-11-18T21:14:23.323Z,0.98
2022-11-18T21:16:52.813Z,0.84
2022-11-18T21:19:20.734Z,0.95
2022-11-18T21:21:48.949Z,1.05
2022-11-18T21:24:18.243Z,0.91
2022-11-18T21:26:46.862Z,0.97
2022-11-18T21:29:17.143Z,0.98
2022-11-18T21:31:45.663Z,0.97
2022-11-18T21:34:13.307Z,0.79
2022-11-18T21:36:44.985Z,0.73
2022-11-18T21:39:13.801Z,0.79
2022-11-18T21:41:41.535Z,0.73
2022-11-18T21:44:10.422Z,0.93
2022-11-18T21:46:40.422Z,0.92
2022-11-18T21:49:08.401Z,0.66
2022-11-18T21:51:36.288Z,0.61
2022-11-18T21:54:04.342Z,0.90
2022-11-18T21:56:32.191Z,0.99
2022-11-18T21:59:01.792Z,0.98
2022-11-18T22:01:30.803Z,0.96
2022-11-18T22:04:01.263Z,0.95
2022-11-18T22:06:31.411Z,0.91
2022-11-18T22:08:59.135Z,1.14
2022-11-18T22:11:26.751Z,1.06
2022-11-18T22:13:54.620Z,0.98
2022-11-18T22:16:23.716Z,1.09
2022-11-18T22:18:57.328Z,0.94
2022-11-18T22:21:27.887Z,0.95
2022-11-18T22:23:58.302Z,0.92
2022-11-18T22:26:25.797Z,0.69
2022-11-18T22:28:54.268Z,0.87
2022-11-18T22:31:22.877Z,0.83
2022-11-18T22:33:51.206Z,0.84
2022-11-18T22:36:20.375Z,0.79
2022-11-18T22:38:49.429Z,0.60
2022-11-18T22:41:32.003Z,0.73
2022-11-18T22:44:04.066Z,0.77
2022-11-18T22:46:34.718Z,0.81
2022-11-18T22:49:02.228Z,0.80
2022-11-18T22:51:29.818Z,0.67
2022-11-18T22:56:46.042Z,0.68
2022-11-18T22:59:13.771Z,0.60
2022-11-18T23:01:41.265Z,0.68
2022-11-18T23:04:08.798Z,0.85
2022-11-18T23:06:36.277Z,0.82
2022-11-18T23:09:05.262Z,0.87
2022-11-18T23:11:50.379Z,0.94
2022-11-18T23:14:17.803Z,0.83
2022-11-18T23:16:45.294Z,0.82
2022-11-18T23:19:14.285Z,0.88
2022-11-18T23:21:41.995Z,0.71
2022-11-18T23:24:12.826Z,0.65
2022-11-18T23:26:40.388Z,0.74
2022-11-18T23:29:08.173Z,0.65
2022-11-18T23:31:35.596Z,0.75
2022-11-18T23:34:03.035Z,0.71
2022-11-18T23:36:30.444Z,0.78
2022-11-18T23:38:57.843Z,0.84
2022-11-18T23:41:26.608Z,0.97
2022-11-18T23:43:54.136Z,0.95
2022-11-18T23:46:21.620Z,0.89
2022-11-18T23:48:49.076Z,0.92
2022-11-18T23:51:18.241Z,0.89
2022-11-18T23:53:47.817Z,0.83
2022-11-18T23:56:17.556Z,0.78
2022-11-18T23:58:47.828Z,0.85
